createdAt,value
2024-01-20T00:01:07.780Z,101937.66
2024-01-20T00:03:34.890Z,101943.53
2024-01-20T00:06:02.691Z,101944.47
2024-01-20T00:08:30.053Z,101949.03
2024-01-20T00:10:57.590Z,101949.81
2024-01-20T00:13:25.017Z,101956.41
2024-01-20T00:15:56.773Z,101949.47
2024-01-20T00:18:27.298Z,101951.34
2024-01-20T00:20:54.504Z,101953.22
2024-01-20T00:23:26.685Z,101955.66
2024-01-20T00:25:54.626Z,101952.91
2024-01-20T00:28:21.798Z,101961.59
2024-01-20T00:30:53.922Z,101958.69
2024-01-20T00:33:29.181Z,101964.78
2024-01-20T00:35:57.355Z,101966.44
2024-01-20T00:38:25.758Z,101976.03
2024-01-20T00:40:56.834Z,101979.41
2024-01-20T00:43:23.968Z,101982.91
2024-01-20T00:45:51.002Z,101981.00
2024-01-20T00:48:17.941Z,101991.63
2024-01-20T00:50:45.340Z,101987.16
2024-01-20T00:53:12.354Z,101995.09
2024-01-20T00:55:39.353Z,101996.59
2024-01-20T00:58:07.372Z,101998.59
2024-01-20T01:00:34.254Z,101996.59
2024-01-20T01:03:01.363Z,101995.72
2024-01-20T01:05:28.513Z,101990.38
2024-01-20T01:07:58.387Z,101991.16
2024-01-20T01:10:35.217Z,101993.63
2024-01-20T01:13:13.376Z,101995.66
2024-01-20T01:15:46.253Z,101985.97
2024-01-20T01:18:22.762Z,102001.41
2024-01-20T01:20:49.835Z,102014.09
2024-01-20T01:23:17.109Z,102011.47
2024-01-20T01:25:45.194Z,102019.19
2024-01-20T01:28:14.386Z,102018.81
2024-01-20T01:30:41.319Z,102020.31
2024-01-20T01:33:08.185Z,102008.00
2024-01-20T01:35:35.094Z,102014.78
2024-01-20T01:38:02.596Z,102013.03
2024-01-20T01:40:29.886Z,102017.31
2024-01-20T01:43:02.311Z,102024.47
2024-01-20T01:45:35.217Z,102020.56
2024-01-20T01:48:03.239Z,102030.69
2024-01-20T01:50:30.560Z,102028.84
2024-01-20T01:53:06.275Z,102028.00
2024-01-20T01:55:41.075Z,102030.72
2024-01-20T01:58:12.780Z,102029.97
2024-01-20T02:00:41.102Z,102035.31
2024-01-20T02:03:18.025Z,102041.38
2024-01-20T02:05:45.111Z,102045.72
2024-01-20T02:08:12.527Z,102051.19
2024-01-20T02:10:41.008Z,102040.03
2024-01-20T02:13:16.517Z,102053.59
2024-01-20T02:15:44.353Z,102055.41
2024-01-20T02:18:11.510Z,102060.97
2024-01-20T02:20:45.005Z,102066.16
2024-01-20T02:23:12.118Z,102055.75
2024-01-20T02:25:39.238Z,102064.38
2024-01-20T02:28:06.403Z,102067.81
2024-01-20T02:30:37.957Z,102077.88
2024-01-20T02:33:05.660Z,102078.38
2024-01-20T02:35:35.181Z,102075.25
2024-01-20T02:38:02.862Z,102085.25
2024-01-20T02:40:30.746Z,102072.72
2024-01-20T02:43:00.060Z,102080.53
2024-01-20T02:45:27.086Z,102091.59
2024-01-20T02:47:56.123Z,102092.72
2024-01-20T02:50:23.279Z,102089.78
2024-01-20T02:52:50.294Z,102103.44
2024-01-20T02:55:17.293Z,102101.50
2024-01-20T02:57:45.965Z,102101.06
2024-01-20T03:00:16.925Z,102107.88
2024-01-20T03:02:43.794Z,102114.63
2024-01-20T03:05:10.758Z,102115.75
2024-01-20T03:07:44.511Z,102124.13
2024-01-20T03:10:15.821Z,102112.53
2024-01-20T03:12:43.734Z,102114.16
2024-01-20T03:15:11.021Z,102121.09
2024-01-20T03:17:38.128Z,102120.56
2024-01-20T03:20:05.447Z,102132.41
2024-01-20T03:22:32.336Z,102127.69
2024-01-20T03:24:59.272Z,102134.97
2024-01-20T03:27:26.312Z,102135.84
2024-01-20T03:29:54.691Z,102132.31
2024-01-20T03:32:21.686Z,102135.38
2024-01-20T03:34:48.761Z,102132.13
2024-01-20T03:37:17.802Z,102144.47
2024-01-20T03:39:46.989Z,102149.28
2024-01-20T03:42:14.023Z,102149.16
2024-01-20T03:44:40.916Z,102142.72
2024-01-20T03:47:07.793Z,102145.31
2024-01-20T03:49:38.934Z,102144.72
2024-01-20T03:52:06.229Z,102140.75
2024-01-20T03:54:33.260Z,102148.16
2024-01-20T03:57:00.411Z,102142.88
2024-01-20T03:59:27.415Z,102141.34
2024-01-20T04:01:54.359Z,102138.19
2024-01-20T04:04:24.311Z,102132.31
2024-01-20T04:06:51.233Z,102135.69
2024-01-20T04:09:18.294Z,102141.53
2024-01-20T04:11:48.718Z,102131.66
2024-01-20T04:14:15.607Z,102136.91
2024-01-20T04:16:42.562Z,102145.63
2024-01-20T04:19:09.559Z,102136.41
2024-01-20T04:21:36.554Z,102145.88
2024-01-20T04:24:03.751Z,102150.28
2024-01-20T04:26:30.833Z,102159.25
2024-01-20T04:28:59.869Z,102152.53
2024-01-20T04:31:26.962Z,102158.91
2024-01-20T04:33:55.133Z,102163.63
2024-01-20T04:36:22.079Z,102165.16
2024-01-20T04:38:52.233Z,102182.91
2024-01-20T04:41:19.337Z,102179.84
2024-01-20T04:43:47.155Z,102187.94
2024-01-20T04:46:14.048Z,102189.22
2024-01-20T04:48:41.110Z,102189.28
2024-01-20T04:51:10.539Z,102205.63
2024-01-20T04:53:37.712Z,102201.75
2024-01-20T04:56:09.389Z,102204.69
2024-01-20T04:58:38.122Z,102214.81
2024-01-20T05:01:05.812Z,102218.31
2024-01-20T05:03:32.926Z,102222.97
2024-01-20T05:06:01.492Z,102234.00
2024-01-20T05:08:36.273Z,102238.31
2024-01-20T05:11:03.312Z,102240.84
2024-01-20T05:13:30.423Z,102235.19
2024-01-20T05:15:57.545Z,102245.66
2024-01-20T05:18:24.718Z,102253.53
2024-01-20T05:20:51.771Z,102256.97
2024-01-20T05:23:19.884Z,102266.31
2024-01-20T05:25:46.893Z,102272.13
2024-01-20T05:28:13.999Z,102275.53
2024-01-20T05:30:42.312Z,102283.59
2024-01-20T05:33:09.946Z,102287.53
2024-01-20T05:35:40.999Z,102288.41
2024-01-20T05:38:07.897Z,102287.94
2024-01-20T05:40:35.757Z,102294.31
2024-01-20T05:43:05.692Z,102294.59
2024-01-20T05:45:32.817Z,102300.91
2024-01-20T05:47:59.932Z,102301.66
2024-01-20T05:50:27.013Z,102304.84
2024-01-20T05:52:53.900Z,102314.50
2024-01-20T05:55:24.048Z,102316.78
2024-01-20T05:57:51.092Z,102323.63
2024-01-20T06:00:20.621Z,102324.44
2024-01-20T06:02:47.817Z,102332.59
2024-01-20T06:05:14.966Z,102332.16
2024-01-20T06:07:41.947Z,102349.69
2024-01-20T06:10:09.415Z,102360.97
2024-01-20T06:12:37.358Z,102354.78
2024-01-20T06:15:04.737Z,102361.59
2024-01-20T06:17:31.732Z,102382.03
2024-01-20T06:19:58.782Z,102376.13
2024-01-20T06:22:25.684Z,102383.38
2024-01-20T06:24:52.963Z,102385.00
2024-01-20T06:27:20.032Z,102395.91
2024-01-20T06:29:47.071Z,102402.66
2024-01-20T06:32:13.963Z,102396.75
2024-01-20T06:34:41.200Z,102393.88
2024-01-20T06:37:08.775Z,102396.59
2024-01-20T06:39:35.948Z,102400.81
2024-01-20T06:42:02.906Z,102409.03
2024-01-20T06:44:29.914Z,102401.97
2024-01-20T06:46:58.585Z,102405.97
2024-01-20T06:49:25.641Z,102411.34
2024-01-20T06:51:52.742Z,102411.63
2024-01-20T06:54:19.696Z,102416.19
2024-01-20T06:56:46.670Z,102425.41
2024-01-20T06:59:13.609Z,102430.63
2024-01-20T07:01:40.532Z,102425.28
2024-01-20T07:04:07.561Z,102428.19
2024-01-20T07:06:34.721Z,102443.84
2024-01-20T07:09:04.181Z,102447.41
2024-01-20T07:11:31.186Z,102451.59
2024-01-20T07:13:58.609Z,102455.84
2024-01-20T07:16:25.633Z,102459.50
2024-01-20T07:18:54.775Z,102473.94
2024-01-20T07:21:22.816Z,102476.53
2024-01-20T07:23:49.799Z,102490.63
2024-01-20T07:26:17.022Z,102489.63
2024-01-20T07:28:44.061Z,102486.13
2024-01-20T07:31:11.325Z,102491.47
2024-01-20T07:33:42.740Z,102487.91
2024-01-20T07:36:16.666Z,102496.41
2024-01-20T07:38:43.612Z,102500.38
2024-01-20T07:41:10.614Z,102500.50
2024-01-20T07:43:37.673Z,102504.72
2024-01-20T07:46:05.071Z,102517.84
2024-01-20T07:48:32.187Z,102515.28
2024-01-20T07:50:59.239Z,102523.38
2024-01-20T07:53:26.403Z,102522.25
2024-01-20T07:55:53.594Z,102525.81
2024-01-20T07:58:20.741Z,102540.00
2024-01-20T08:00:48.078Z,102543.22
2024-01-20T08:03:15.295Z,102541.28
2024-01-20T08:05:42.531Z,102545.25
2024-01-20T08:08:09.653Z,102552.03
2024-01-20T08:10:36.682Z,102557.94
2024-01-20T08:13:08.214Z,102562.44
2024-01-20T08:15:40.116Z,102555.19
2024-01-20T08:18:10.475Z,102561.59
2024-01-20T08:20:37.569Z,102563.66
2024-01-20T08:23:10.957Z,102562.84
2024-01-20T08:25:38.246Z,102568.97
2024-01-20T08:28:05.532Z,102574.81
2024-01-20T08:30:32.712Z,102576.84
2024-01-20T08:33:03.455Z,102583.81
2024-01-20T08:35:32.294Z,102586.84
2024-01-20T08:37:59.429Z,102586.59
2024-01-20T08:40:26.393Z,102586.34
2024-01-20T08:42:53.348Z,102594.72
2024-01-20T08:45:22.570Z,102591.47
2024-01-20T08:47:50.430Z,102593.63
2024-01-20T08:50:17.647Z,102592.94
2024-01-20T08:52:52.516Z,102597.63
2024-01-20T08:55:20.347Z,102591.47
2024-01-20T08:57:47.663Z,102602.94
2024-01-20T09:00:22.555Z,102603.72
2024-01-20T09:02:50.210Z,102609.16
2024-01-20T09:05:19.500Z,102598.81
2024-01-20T09:07:46.847Z,102610.34
2024-01-20T09:10:13.891Z,102610.28
2024-01-20T09:12:40.987Z,102612.47
2024-01-20T09:15:08.664Z,102620.06
2024-01-20T09:17:43.520Z,102607.31
2024-01-20T09:20:11.129Z,102621.31
2024-01-20T09:22:44.455Z,102608.91
2024-01-20T09:25:17.574Z,102619.66
2024-01-20T09:27:44.732Z,102626.75
2024-01-20T09:30:13.455Z,102633.13
2024-01-20T09:32:48.567Z,102641.09
2024-01-20T09:35:15.869Z,102631.63
2024-01-20T09:37:42.939Z,102626.41
2024-01-20T09:40:18.502Z,102633.78
2024-01-20T09:43:09.597Z,102638.69
2024-01-20T09:45:44.205Z,102639.72
2024-01-20T09:48:20.868Z,102634.88
2024-01-20T09:50:56.366Z,102627.88
2024-01-20T09:53:31.893Z,102641.41
2024-01-20T09:56:06.117Z,102628.09
2024-01-20T09:58:43.768Z,102626.03
2024-01-20T10:01:35.419Z,102635.00
2024-01-20T10:04:09.504Z,102635.09
2024-01-20T10:06:43.669Z,102628.72
2024-01-20T10:09:18.920Z,102630.66
2024-01-20T10:11:48.872Z,102629.34
2024-01-20T10:14:16.780Z,102625.09
2024-01-20T10:17:08.261Z,102628.06
2024-01-20T10:19:39.870Z,102628.72
2024-01-20T10:22:11.199Z,102622.28
2024-01-20T10:25:34.802Z,102611.88
2024-01-20T10:28:09.392Z,102612.34
2024-01-20T10:30:44.370Z,102621.91
2024-01-20T10:33:11.688Z,102621.97
2024-01-20T10:35:40.138Z,102622.88
2024-01-20T10:38:24.766Z,102615.91
2024-01-20T10:40:58.541Z,102630.19
2024-01-20T10:43:32.161Z,102622.59
2024-01-20T10:46:38.158Z,102624.03
2024-01-20T10:49:16.602Z,102623.53
2024-01-20T10:51:51.852Z,102612.19
2024-01-20T10:54:27.717Z,102623.16
2024-01-20T10:57:02.733Z,102613.81
2024-01-20T10:59:39.080Z,102623.94
2024-01-20T11:02:08.294Z,102623.53
2024-01-20T11:04:46.949Z,102638.31
2024-01-20T11:07:23.612Z,102636.53
2024-01-20T11:10:01.413Z,102619.31
2024-01-20T11:12:29.402Z,102613.00
2024-01-20T11:14:59.392Z,102621.13
2024-01-20T11:17:31.907Z,102622.13
2024-01-20T11:20:08.597Z,102617.81
2024-01-20T11:22:53.259Z,102609.63
2024-01-20T11:25:26.832Z,102605.50
2024-01-20T11:28:04.117Z,102605.47
2024-01-20T11:30:37.792Z,102614.00
2024-01-20T11:33:08.104Z,102614.16
2024-01-20T11:35:39.266Z,102605.84
2024-01-20T11:38:06.801Z,102604.25
2024-01-20T11:40:34.045Z,102596.13
2024-01-20T11:43:11.021Z,102603.34
2024-01-20T11:45:44.137Z,102602.91
2024-01-20T11:48:15.232Z,102610.19
2024-01-20T11:50:44.461Z,102603.75
2024-01-20T11:53:12.174Z,102598.84
2024-01-20T11:55:39.518Z,102602.78
2024-01-20T11:58:14.406Z,102603.28
2024-01-20T12:00:43.822Z,102596.31
2024-01-20T12:03:13.501Z,102589.44
2024-01-20T12:05:43.757Z,102587.28
2024-01-20T12:08:11.546Z,102581.34
2024-01-20T12:10:41.684Z,102583.41
2024-01-20T12:13:17.076Z,102576.91
2024-01-20T12:15:53.630Z,102577.00
2024-01-20T12:18:21.256Z,102577.88
2024-01-20T12:20:51.705Z,102572.34
2024-01-20T12:23:23.360Z,102570.81
2024-01-20T12:25:56.852Z,102586.47
2024-01-20T12:28:27.674Z,102577.53
2024-01-20T12:30:54.805Z,102574.59
2024-01-20T12:33:22.095Z,102574.25
2024-01-20T12:35:49.153Z,102569.53
2024-01-20T12:38:16.378Z,102561.41
2024-01-20T12:40:43.661Z,102553.38
2024-01-20T12:43:12.455Z,102559.53
2024-01-20T12:45:39.452Z,102553.91
2024-01-20T12:48:06.829Z,102553.38
2024-01-20T12:50:33.820Z,102557.34
2024-01-20T12:53:00.882Z,102551.84
2024-01-20T12:55:27.950Z,102554.25
2024-01-20T12:57:54.981Z,102555.50
2024-01-20T13:00:22.153Z,102560.00
2024-01-20T13:02:49.602Z,102566.59
2024-01-20T13:05:16.761Z,102547.84
2024-01-20T13:07:43.850Z,102559.78
2024-01-20T13:10:20.051Z,102547.03
2024-01-20T13:13:01.080Z,102562.16
2024-01-20T13:15:30.368Z,102553.13
2024-01-20T13:18:06.186Z,102562.16
2024-01-20T13:20:33.444Z,102561.00
2024-01-20T13:23:00.786Z,102555.69
2024-01-20T13:25:29.766Z,102558.59
2024-01-20T13:27:56.795Z,102555.06
2024-01-20T13:30:23.914Z,102549.31
2024-01-20T13:32:51.293Z,102553.91
2024-01-20T13:35:21.728Z,102558.69
2024-01-20T13:37:49.145Z,102557.16
2024-01-20T13:40:19.498Z,102554.47
2024-01-20T13:42:46.551Z,102561.81
2024-01-20T13:45:13.964Z,102564.59
2024-01-20T13:47:44.530Z,102561.50
2024-01-20T13:50:19.654Z,102564.97
2024-01-20T13:52:46.682Z,102571.19
2024-01-20T13:55:20.581Z,102563.59
2024-01-20T13:57:48.626Z,102576.06
2024-01-20T14:00:18.319Z,102580.50
2024-01-20T14:02:46.146Z,102583.34
2024-01-20T14:05:20.893Z,102577.13
2024-01-20T14:07:56.134Z,102591.38
2024-01-20T14:10:23.852Z,102595.56
2024-01-20T14:12:53.280Z,102594.25
2024-01-20T14:15:20.632Z,102587.94
2024-01-20T14:17:48.532Z,102589.63
2024-01-20T14:20:19.943Z,102590.88
2024-01-20T14:22:55.016Z,102596.41
2024-01-20T14:25:22.183Z,102590.59
2024-01-20T14:27:49.765Z,102605.22
2024-01-20T14:30:28.673Z,102601.41
2024-01-20T14:32:56.558Z,102605.66
2024-01-20T14:35:26.010Z,102610.31
2024-01-20T14:37:53.252Z,102613.25
2024-01-20T14:40:20.603Z,102625.78
2024-01-20T14:42:47.973Z,102616.00
2024-01-20T14:45:15.626Z,102620.34
2024-01-20T14:47:51.592Z,102630.09
2024-01-20T14:50:22.989Z,102627.28
2024-01-20T14:52:53.198Z,102630.69
2024-01-20T14:55:22.778Z,102633.19
2024-01-20T14:57:50.381Z,102631.03
2024-01-20T15:00:20.445Z,102631.03
2024-01-20T15:02:48.058Z,102624.78
2024-01-20T15:05:15.179Z,102629.69
2024-01-20T15:07:42.248Z,102630.88
2024-01-20T15:10:09.686Z,102628.91
2024-01-20T15:12:37.365Z,102616.00
2024-01-20T15:15:08.075Z,102623.59
2024-01-20T15:17:35.429Z,102624.41
2024-01-20T15:20:02.481Z,102628.47
2024-01-20T15:22:30.380Z,102631.50
2024-01-20T15:24:57.465Z,102637.47
2024-01-20T15:27:25.070Z,102642.88
2024-01-20T15:29:53.961Z,102640.13
2024-01-20T15:32:21.485Z,102640.00
2024-01-20T15:34:51.046Z,102645.66
2024-01-20T15:37:20.658Z,102652.75
2024-01-20T15:39:51.372Z,102661.44
2024-01-20T15:42:19.644Z,102665.47
2024-01-20T15:44:48.048Z,102664.13
2024-01-20T15:47:15.382Z,102663.13
2024-01-20T15:49:44.244Z,102669.91
2024-01-20T15:52:12.295Z,102670.84
2024-01-20T15:54:40.758Z,102673.56
2024-01-20T15:57:10.246Z,102678.84
2024-01-20T15:59:37.404Z,102677.00
2024-01-20T16:02:04.943Z,102676.66
2024-01-20T16:04:35.430Z,102689.75
2024-01-20T16:07:03.373Z,102688.31
2024-01-20T16:09:30.913Z,102695.81
2024-01-20T16:12:06.841Z,102690.56
2024-01-20T16:14:35.499Z,102700.56
2024-01-20T16:17:04.106Z,102702.25
2024-01-20T16:19:31.853Z,102695.97
2024-01-20T16:21:59.462Z,102706.31
2024-01-20T16:24:27.189Z,102707.13
2024-01-20T16:26:56.926Z,102710.19
2024-01-20T16:29:30.060Z,102714.69
2024-01-20T16:31:59.370Z,102720.88
2024-01-20T16:34:29.195Z,102722.59
2024-01-20T16:36:59.444Z,102734.94
2024-01-20T16:39:27.866Z,102740.34
2024-01-20T16:41:57.917Z,102734.44
2024-01-20T16:44:26.273Z,102738.34
2024-01-20T16:46:55.093Z,102750.47
2024-01-20T16:49:26.743Z,102757.38
2024-01-20T16:51:57.840Z,102758.72
2024-01-20T16:54:26.284Z,102767.97
2024-01-20T16:56:55.016Z,102774.94
2024-01-20T16:59:22.384Z,102781.56
2024-01-20T17:01:52.457Z,102779.47
2024-01-20T17:04:23.290Z,102786.63
2024-01-20T17:06:50.660Z,102790.97
2024-01-20T17:09:18.007Z,102799.41
2024-01-20T17:11:46.512Z,102799.47
2024-01-20T17:14:19.137Z,102805.09
2024-01-20T17:16:47.997Z,102801.16
2024-01-20T17:19:16.253Z,102808.19
2024-01-20T17:21:43.841Z,102813.59
2024-01-20T17:24:13.389Z,102811.44
2024-01-20T17:26:40.424Z,102817.69
2024-01-20T17:29:07.486Z,102829.25
2024-01-20T17:31:34.960Z,102822.50
2024-01-20T17:34:02.618Z,102824.00
2024-01-20T17:36:31.040Z,102826.41
2024-01-20T17:38:58.641Z,102833.06
2024-01-20T17:41:25.659Z,102829.25
2024-01-20T17:43:52.764Z,102831.00
2024-01-20T17:46:20.125Z,102832.34
2024-01-20T17:48:47.294Z,102843.09
2024-01-20T17:51:14.601Z,102846.41
2024-01-20T17:53:41.593Z,102855.97
2024-01-20T17:56:09.151Z,102853.56
2024-01-20T17:58:37.192Z,102859.47
2024-01-20T18:01:04.482Z,102861.06
2024-01-20T18:03:36.502Z,102860.25
2024-01-20T18:06:04.088Z,102860.66
2024-01-20T18:08:31.966Z,102867.84
2024-01-20T18:11:00.478Z,102870.94
2024-01-20T18:13:27.884Z,102875.84
2024-01-20T18:15:55.181Z,102875.84
2024-01-20T18:18:22.778Z,102879.22
2024-01-20T18:20:50.233Z,102880.06
2024-01-20T18:23:19.689Z,102888.47
2024-01-20T18:25:46.892Z,102891.78
2024-01-20T18:28:15.590Z,102894.97
2024-01-20T18:30:43.316Z,102891.53
2024-01-20T18:33:13.065Z,102900.78
2024-01-20T18:35:40.350Z,102905.75
2024-01-20T18:38:08.073Z,102905.00
2024-01-20T18:40:36.137Z,102912.47
2024-01-20T18:43:03.192Z,102921.38
2024-01-20T18:45:30.786Z,102919.34
2024-01-20T18:47:58.782Z,102929.09
2024-01-20T18:50:26.172Z,102929.75
2024-01-20T18:52:57.113Z,102941.72
2024-01-20T18:55:24.172Z,102940.44
2024-01-20T18:57:51.200Z,102940.56
2024-01-20T19:00:18.611Z,102947.47
2024-01-20T19:02:45.805Z,102950.94
2024-01-20T19:05:13.907Z,102945.00
2024-01-20T19:07:47.813Z,102948.25
2024-01-20T19:10:15.049Z,102944.88
2024-01-20T19:12:50.173Z,102948.97
2024-01-20T19:15:17.460Z,102954.25
2024-01-20T19:17:53.571Z,102960.44
2024-01-20T19:20:26.720Z,102952.69
2024-01-20T19:22:57.223Z,102959.44
2024-01-20T19:25:24.353Z,102970.78
2024-01-20T19:27:52.831Z,102967.88
2024-01-20T19:30:21.640Z,102972.03
2024-01-20T19:32:50.300Z,102970.41
2024-01-20T19:35:23.617Z,102975.75
2024-01-20T19:37:50.832Z,102977.13
2024-01-20T19:40:18.023Z,102984.69
2024-01-20T19:42:45.019Z,102988.53
2024-01-20T19:45:12.894Z,102989.94
2024-01-20T19:47:39.839Z,102981.16
2024-01-20T19:50:08.979Z,102987.78
2024-01-20T19:52:40.003Z,102981.06
2024-01-20T19:55:11.503Z,102976.34
2024-01-20T19:57:38.597Z,102978.00
2024-01-20T20:00:06.484Z,102988.13
2024-01-20T20:02:34.422Z,102979.97
2024-01-20T20:05:02.994Z,102980.69
2024-01-20T20:07:30.591Z,102978.13
2024-01-20T20:09:57.703Z,102984.03
2024-01-20T20:12:24.756Z,102987.66
2024-01-20T20:14:53.270Z,102991.81
2024-01-20T20:17:20.344Z,102991.44
2024-01-20T20:19:47.646Z,102990.97
2024-01-20T20:22:17.546Z,102987.22
2024-01-20T20:24:46.169Z,102990.47
2024-01-20T20:27:13.814Z,102987.22
2024-01-20T20:29:40.986Z,102990.06
2024-01-20T20:32:08.175Z,102985.50
2024-01-20T20:34:39.834Z,102983.41
2024-01-20T20:37:08.016Z,102982.75
2024-01-20T20:39:35.867Z,102972.91
2024-01-20T20:42:04.094Z,102974.63
2024-01-20T20:44:33.933Z,102981.16
2024-01-20T20:47:02.180Z,102976.72
2024-01-20T20:49:31.820Z,102983.69
2024-01-20T20:51:58.961Z,102976.09
2024-01-20T20:54:26.704Z,102972.66
2024-01-20T20:56:53.778Z,102958.22
2024-01-20T20:59:20.795Z,102967.28
2024-01-20T21:01:48.587Z,102974.38
2024-01-20T21:04:15.745Z,102965.31
2024-01-20T21:06:45.871Z,102968.25
2024-01-20T21:09:12.955Z,102966.53
2024-01-20T21:11:40.036Z,102974.06
2024-01-20T21:14:15.469Z,102970.50
2024-01-20T21:16:42.538Z,102963.94
2024-01-20T21:19:09.686Z,102969.94
2024-01-20T21:21:36.855Z,102961.19
2024-01-20T21:24:05.177Z,102957.25
2024-01-20T21:26:33.764Z,102968.16
2024-01-20T21:29:00.935Z,102964.19
2024-01-20T21:31:28.592Z,102958.91
2024-01-20T21:33:55.919Z,102956.78
2024-01-20T21:36:24.471Z,102969.94
2024-01-20T21:38:51.673Z,102962.34
2024-01-20T21:41:23.133Z,102963.72
2024-01-20T21:43:50.870Z,102969.50
2024-01-20T21:46:17.907Z,102975.22
2024-01-20T21:48:46.214Z,102970.69
2024-01-20T21:51:13.273Z,102974.09
2024-01-20T21:53:40.181Z,102970.53
2024-01-20T21:56:07.613Z,102969.41
2024-01-20T21:58:34.664Z,102971.41
2024-01-20T22:01:01.758Z,102971.03
2024-01-20T22:03:29.038Z,102978.97
2024-01-20T22:05:56.316Z,102974.84
2024-01-20T22:08:25.308Z,102976.09
2024-01-20T22:10:59.989Z,102980.69
2024-01-20T22:13:31.150Z,102978.06
2024-01-20T22:15:58.524Z,102978.31
2024-01-20T22:18:33.623Z,102979.94
2024-01-20T22:21:01.617Z,102982.63
2024-01-20T22:23:29.127Z,102991.38
2024-01-20T22:26:03.981Z,102993.22
2024-01-20T22:28:31.232Z,102983.31
2024-01-20T22:31:04.058Z,102990.06
2024-01-20T22:33:31.358Z,102990.81
2024-01-20T22:35:58.424Z,102992.47
2024-01-20T22:38:25.430Z,102994.75
2024-01-20T22:40:55.334Z,102997.31
2024-01-20T22:43:22.452Z,102993.47
2024-01-20T22:45:58.700Z,102993.91
2024-01-20T22:48:26.114Z,102996.50
2024-01-20T22:51:03.161Z,103007.63
2024-01-20T22:53:32.358Z,102998.28
2024-01-20T22:55:59.308Z,103007.19
2024-01-20T22:58:27.514Z,103014.72
2024-01-20T23:01:04.821Z,103012.13
2024-01-20T23:03:32.063Z,103013.09
2024-01-20T23:05:59.194Z,103015.94
2024-01-20T23:08:27.557Z,103022.13
2024-01-20T23:10:55.028Z,103029.97
2024-01-20T23:13:22.274Z,103021.16
2024-01-20T23:15:54.309Z,103019.31
2024-01-20T23:18:23.171Z,103023.63
2024-01-20T23:20:50.538Z,103017.88
2024-01-20T23:23:17.680Z,103018.06
2024-01-20T23:25:44.959Z,103014.50
2024-01-20T23:28:12.074Z,103023.63
2024-01-20T23:30:39.318Z,103020.41
2024-01-20T23:33:09.400Z,103024.44
2024-01-20T23:35:39.281Z,103021.97
2024-01-20T23:38:09.376Z,103024.03
2024-01-20T23:40:36.297Z,103023.25
2024-01-20T23:43:03.703Z,103021.59
2024-01-20T23:45:36.208Z,103034.59
2024-01-20T23:48:05.083Z,103030.00
2024-01-20T23:50:40.287Z,103026.69
2024-01-20T23:53:07.368Z,103027.94
2024-01-20T23:55:34.312Z,103037.09
2024-01-20T23:58:01.303Z,103035.06
